createdAt,value
2023-02-06T00:00:03.657Z,93.5
2023-02-06T00:05:09.814Z,93
2023-02-06T00:10:15.952Z,94.5
2023-02-06T00:15:22.007Z,95.5
2023-02-06T00:20:28.128Z,94
2023-02-06T00:25:34.253Z,96.5
2023-02-06T00:30:40.361Z,96
2023-02-06T00:35:46.497Z,95
2023-02-06T00:40:51.661Z,95.5
2023-02-06T00:45:57.757Z,97
2023-02-06T00:51:03.892Z,97.5
2023-02-06T00:56:09.985Z,98
2023-02-06T01:01:16.099Z,96
2023-02-06T01:06:22.224Z,94.5
2023-02-06T01:11:28.332Z,93.5
2023-02-06T01:16:33.473Z,91
2023-02-06T01:21:38.631Z,93
2023-02-06T01:26:44.744Z,94.5
2023-02-06T01:31:50.841Z,94
2023-02-06T01:36:56.960Z,95
2023-02-06T01:42:03.095Z,92
2023-02-06T01:47:09.190Z,93
2023-02-06T01:52:15.309Z,93.5
2023-02-06T01:57:21.483Z,95.5
2023-02-06T02:02:27.558Z,96.5
2023-02-06T02:07:33.671Z,94.5
2023-02-06T02:12:39.791Z,95
2023-02-06T02:17:45.913Z,94.5
2023-02-06T02:22:52.041Z,93.5
2023-02-06T02:27:57.176Z,91
2023-02-06T02:33:03.287Z,89.5
2023-02-06T02:38:09.418Z,86.5
2023-02-06T02:43:15.529Z,88.5
2023-02-06T02:48:21.640Z,88
2023-02-06T02:53:27.754Z,88.5
2023-02-06T02:58:33.902Z,86
2023-02-06T03:03:39.026Z,83.5
2023-02-06T03:08:44.155Z,84
2023-02-06T03:13:50.278Z,83
2023-02-06T03:18:56.389Z,83
2023-02-06T03:24:02.509Z,83
2023-02-06T03:29:08.611Z,83
2023-02-06T03:34:14.731Z,81.5
2023-02-06T03:39:20.854Z,83.5
2023-02-06T03:44:26.990Z,81
2023-02-06T03:49:33.288Z,80.5
2023-02-06T03:54:39.188Z,82.5
2023-02-06T03:59:45.325Z,84.5
2023-02-06T04:04:51.426Z,81.5
2023-02-06T04:09:57.543Z,82.5
2023-02-06T04:15:02.677Z,82
2023-02-06T04:20:08.783Z,81
2023-02-06T04:25:14.907Z,82
2023-02-06T04:30:21.035Z,82
2023-02-06T04:35:27.178Z,83
2023-02-06T04:40:33.255Z,82.5
2023-02-06T04:45:39.370Z,82.5
2023-02-06T04:50:45.486Z,83.5
2023-02-06T04:55:51.595Z,83
2023-02-06T05:00:57.705Z,85
2023-02-06T05:06:03.822Z,85.5
2023-02-06T05:11:09.957Z,88
2023-02-06T05:16:16.076Z,88
2023-02-06T05:21:21.193Z,88.5
2023-02-06T05:26:27.307Z,89
2023-02-06T05:31:33.429Z,89
2023-02-06T05:36:39.551Z,90
2023-02-06T05:41:45.651Z,90.5
2023-02-06T05:46:51.778Z,90.5
2023-02-06T05:51:57.871Z,91
2023-02-06T05:57:04.004Z,92
2023-02-06T06:02:10.125Z,94
2023-02-06T06:07:16.229Z,95.5
2023-02-06T06:12:22.367Z,97
2023-02-06T06:17:28.471Z,98.5
2023-02-06T06:22:34.583Z,98.5
2023-02-06T06:27:39.716Z,99
2023-02-06T06:32:45.839Z,99
2023-02-06T06:37:51.956Z,98.5
2023-02-06T06:42:58.090Z,99
2023-02-06T06:48:04.192Z,99
2023-02-06T06:53:10.300Z,99
2023-02-06T06:58:16.411Z,99
2023-02-06T07:03:22.528Z,99.5
2023-02-06T07:08:28.635Z,99.5
2023-02-06T07:13:34.784Z,99.5
2023-02-06T07:18:40.864Z,99.5
2023-02-06T07:23:46.998Z,99.5
2023-02-06T07:28:53.118Z,99.5
2023-02-06T07:33:58.239Z,99.5
2023-02-06T07:39:04.354Z,99.5
2023-02-06T07:44:10.489Z,99.5
2023-02-06T07:49:16.575Z,99.5
2023-02-06T07:54:22.709Z,99.5
2023-02-06T07:59:28.806Z,99.5
2023-02-06T08:04:34.931Z,99.5
2023-02-06T08:09:41.077Z,99.5
2023-02-06T08:14:47.156Z,99.5
2023-02-06T08:19:53.360Z,99.5
2023-02-06T08:24:59.439Z,99.5
2023-02-06T08:30:05.577Z,99.5
2023-02-06T08:35:11.674Z,99.5
2023-02-06T08:40:16.792Z,99.5
2023-02-06T08:45:22.904Z,99.5
2023-02-06T08:50:29.032Z,99.5
2023-02-06T08:55:35.136Z,99.5
2023-02-06T09:00:41.258Z,99.5
2023-02-06T09:05:47.374Z,99.5
2023-02-06T09:10:53.500Z,99.5
2023-02-06T09:15:59.606Z,99.5
2023-02-06T09:21:05.726Z,99.5
2023-02-06T09:26:11.848Z,99.5
2023-02-06T09:31:18.129Z,99.5
2023-02-06T09:36:24.174Z,99.5
2023-02-06T09:41:30.450Z,99.5
2023-02-06T09:46:35.338Z,99.5
2023-02-06T09:51:41.431Z,99.5
2023-02-06T09:56:47.536Z,99.5
2023-02-06T10:01:53.789Z,99.5
2023-02-06T10:06:59.767Z,99.5
2023-02-06T10:12:05.898Z,99.5
2023-02-06T10:17:12.013Z,99.5
2023-02-06T10:22:18.137Z,99.5
2023-02-06T10:27:24.334Z,99.5
2023-02-06T10:32:30.357Z,99.5
2023-02-06T10:37:36.521Z,99.5
